Time;durP1;ratioP1;P1;durP2;ratioP2;P2;SDS_P1;SDS_P2;PMS_P1;PMS_P2;Temp;Humidity;BMP_temperature;BMP_pressure;BME280_temperature;BME280_humidity;BME280_pressure;Samples;Min_cycle;Max_cycle;Signal;HPM_P1;HPM_P2
2022/06/04 00:00:33;;;;;;;6.03;2.95;;;19.10;99.90;;;;;;5116971;27;20685;-72
2022/06/04 00:02:58;;;;;;;3.85;3.10;;;19.00;99.90;;;;;;5135760;27;20209;-71
2022/06/04 00:05:30;;;;;;;3.58;2.70;;;19.00;99.90;;;;;;5121556;27;20201;-71
2022/06/04 00:07:58;;;;;;;4.85;3.13;;;19.00;99.90;;;;;;5096612;28;20177;-71
2022/06/04 00:15:59;;;;;;;8.43;5.60;;;19.00;99.90;;;;;;5115438;28;20594;-71
2022/06/04 00:18:25;;;;;;;3.95;3.35;;;19.10;99.90;;;;;;5113906;28;20205;-72
2022/06/04 00:20:52;;;;;;;6.95;4.35;;;19.10;99.90;;;;;;5114831;28;20202;-71
2022/06/04 00:23:19;;;;;;;5.68;4.30;;;19.10;99.90;;;;;;5096394;28;20218;-71
2022/06/04 00:25:49;;;;;;;5.13;3.65;;;19.10;99.90;;;;;;5114822;28;20179;-70
2022/06/04 00:28:17;;;;;;;4.93;3.42;;;19.10;99.90;;;;;;5096324;28;20166;-71
2022/06/04 00:30:43;;;;;;;4.78;3.75;;;19.10;99.90;;;;;;5096372;28;20205;-71
2022/06/04 00:33:09;;;;;;;5.07;3.00;;;19.20;99.90;;;;;;5079744;28;20282;-71
2022/06/04 00:35:35;;;;;;;5.25;2.70;;;19.10;99.90;;;;;;5096348;28;20213;-72
2022/06/04 00:38:03;;;;;;;5.15;3.38;;;19.00;99.90;;;;;;5095736;28;20642;-72
2022/06/04 00:40:43;;;;;;;4.18;3.03;;;18.80;99.90;;;;;;5096776;28;20170;-72
2022/06/04 00:43:09;;;;;;;4.43;3.00;;;18.80;99.90;;;;;;5096463;28;20216;-73
2022/06/04 00:45:34;;;;;;;8.18;3.25;;;18.80;99.90;;;;;;5114215;28;20201;-72
2022/06/04 00:48:03;;;;;;;5.88;4.30;;;18.70;99.90;;;;;;5095480;28;20220;-70
2022/06/04 00:50:31;;;;;;;7.40;3.55;;;18.60;99.90;;;;;;5095962;28;20221;-72
2022/06/04 00:52:59;;;;;;;3.97;3.03;;;18.60;99.90;;;;;;5109553;27;20556;-71
2022/06/04 00:55:29;;;;;;;5.57;4.60;;;18.50;99.90;;;;;;5135120;27;20189;-72
2022/06/04 00:58:10;;;;;;;4.95;3.10;;;18.50;99.90;;;;;;5114624;27;20217;-72
2022/06/04 01:00:46;;;;;;;4.72;4.07;;;18.70;99.90;;;;;;5113401;27;20208;-72
2022/06/04 01:03:47;;;;;;;3.97;3.30;;;18.70;99.90;;;;;;5097984;28;20211;-71
2022/06/04 01:06:39;;;;;;;5.60;3.22;;;18.60;99.90;;;;;;5095015;28;20201;-72
2022/06/04 01:09:40;;;;;;;5.63;3.08;;;18.60;99.90;;;;;;5094953;28;20228;-71
2022/06/04 01:12:33;;;;;;;3.35;3.05;;;18.60;99.90;;;;;;5113980;28;20198;-72
2022/06/04 01:15:01;;;;;;;3.83;3.08;;;18.60;99.90;;;;;;5113926;28;20220;-72
2022/06/04 01:17:40;;;;;;;4.70;2.80;;;18.60;99.90;;;;;;5095198;28;20217;-71
2022/06/04 01:20:43;;;;;;;3.97;3.00;;;18.60;99.90;;;;;;5095195;28;20213;-71
2022/06/04 01:23:27;;;;;;;5.72;3.17;;;18.60;99.90;;;;;;5095540;28;20284;-71
2022/06/04 01:26:04;;;;;;;3.53;3.22;;;18.60;99.90;;;;;;5088256;28;20169;-71
2022/06/04 01:28:32;;;;;;;3.17;2.75;;;18.60;99.90;;;;;;5095051;28;20170;-71
2022/06/04 01:31:03;;;;;;;3.75;3.20;;;18.50;99.90;;;;;;5095455;28;20213;-72
2022/06/04 01:33:39;;;;;;;8.68;6.03;;;18.50;99.90;;;;;;5113335;28;20211;-71
2022/06/04 01:36:13;;;;;;;5.63;4.38;;;18.60;99.90;;;;;;5095496;28;20236;-71
2022/06/04 01:38:41;;;;;;;3.88;3.40;;;18.50;99.90;;;;;;5112660;28;20588;-72
2022/06/04 01:41:13;;;;;;;5.50;3.10;;;18.60;99.90;;;;;;5095029;28;20209;-71
2022/06/04 01:43:43;;;;;;;4.32;3.10;;;18.60;99.90;;;;;;5114265;28;20208;-71
2022/06/04 01:46:21;;;;;;;4.25;2.70;;;18.60;99.90;;;;;;5095172;28;20209;-71
2022/06/04 01:48:51;;;;;;;4.30;2.67;;;18.50;99.90;;;;;;5098068;27;20257;-71
2022/06/04 01:51:20;;;;;;;4.50;3.10;;;18.50;99.90;;;;;;5133887;27;20201;-71
2022/06/04 01:53:49;;;;;;;4.93;2.65;;;18.50;99.90;;;;;;5116430;27;20197;-70
2022/06/04 01:56:34;;;;;;;4.15;3.38;;;18.60;99.90;;;;;;5133624;27;20208;-70
2022/06/04 01:59:37;;;;;;;4.13;2.95;;;18.60;99.90;;;;;;5132817;27;20275;-71
2022/06/04 02:02:06;;;;;;;4.32;3.10;;;18.40;99.90;;;;;;5090325;27;20218;-71
2022/06/04 02:04:37;;;;;;;6.20;3.00;;;18.40;99.90;;;;;;5133860;27;20201;-71
2022/06/04 02:07:31;;;;;;;4.35;3.15;;;18.30;99.90;;;;;;5112951;28;20198;-70
2022/06/04 02:09:59;;;;;;;8.65;4.13;;;18.30;99.90;;;;;;5093708;28;20753;-70
2022/06/04 02:12:25;;;;;;;8.20;4.93;;;18.20;99.90;;;;;;5118437;28;20197;-71
2022/06/04 02:14:51;;;;;;;4.97;3.67;;;18.10;99.90;;;;;;5109317;27;20269;-71
2022/06/04 02:17:21;;;;;;;3.80;3.17;;;18.10;99.90;;;;;;5138126;27;20220;-70
2022/06/04 02:19:47;;;;;;;9.05;3.63;;;18.10;99.90;;;;;;5111055;27;20223;-70
2022/06/04 02:22:13;;;;;;;4.28;3.45;;;18.10;99.90;;;;;;5103691;28;20161;-70
2022/06/04 02:24:40;;;;;;;5.00;2.67;;;18.10;99.90;;;;;;5110805;28;20200;-71
2022/06/04 02:27:06;;;;;;;3.83;2.95;;;18.20;99.90;;;;;;5120920;27;20209;-71
2022/06/04 02:29:36;;;;;;;3.13;2.83;;;18.20;99.90;;;;;;5101404;27;20222;-71
2022/06/04 02:32:29;;;;;;;4.68;2.70;;;18.20;99.90;;;;;;5102247;28;20173;-71
2022/06/04 02:35:21;;;;;;;3.30;2.35;;;18.20;99.90;;;;;;5095398;28;20215;-70
2022/06/04 02:38:05;;;;;;;5.97;2.83;;;18.10;99.90;;;;;;5093719;28;20193;-70
2022/06/04 02:40:45;;;;;;;4.03;2.75;;;18.10;99.90;;;;;;5104022;27;20201;-71
2022/06/04 02:43:14;;;;;;;4.38;2.83;;;18.00;99.90;;;;;;5124250;27;20201;-71
2022/06/04 02:45:44;;;;;;;5.25;3.17;;;18.10;99.90;;;;;;5117266;27;20197;-72
2022/06/04 02:48:26;;;;;;;29.35;21.05;;;18.00;99.90;;;;;;5105048;27;20215;-71
2022/06/04 02:51:05;;;;;;;3.67;3.00;;;18.00;99.90;;;;;;5113263;27;20202;-71
2022/06/04 02:53:33;;;;;;;5.05;3.53;;;18.00;99.90;;;;;;5121473;27;20708;-69
2022/06/04 02:56:10;;;;;;;3.25;2.92;;;17.90;99.90;;;;;;5108700;28;20193;-69
2022/06/04 02:58:39;;;;;;;5.20;3.08;;;17.90;99.90;;;;;;5119932;27;20223;-69
2022/06/04 03:01:08;;;;;;;4.68;2.60;;;17.80;99.90;;;;;;5120613;27;20575;-70
2022/06/04 03:03:34;;;;;;;4.72;3.30;;;17.80;99.90;;;;;;5121889;27;20201;-70
2022/06/04 03:06:03;;;;;;;4.20;3.13;;;17.70;99.90;;;;;;5105562;27;20215;-71
2022/06/04 03:08:32;;;;;;;4.28;3.20;;;17.60;99.90;;;;;;5122758;27;20682;-70
2022/06/04 03:10:58;;;;;;;9.55;6.10;;;17.70;99.90;;;;;;5123714;27;20256;-71
2022/06/04 03:13:24;;;;;;;8.95;4.28;;;17.70;99.90;;;;;;5105191;27;20225;-70
2022/06/04 03:15:51;;;;;;;4.35;3.33;;;17.70;99.90;;;;;;5103909;28;20189;-70
2022/06/04 03:18:17;;;;;;;7.30;3.38;;;17.70;99.90;;;;;;5100824;28;20285;-70
2022/06/04 03:20:43;;;;;;;4.78;3.50;;;17.60;99.90;;;;;;5122938;27;20685;-71
2022/06/04 03:23:09;;;;;;;8.60;3.20;;;17.80;99.90;;;;;;5105275;27;20205;-71
2022/06/04 03:25:41;;;;;;;3.70;2.95;;;17.80;99.90;;;;;;5120631;27;20209;-71
2022/06/04 03:28:08;;;;;;;8.05;4.90;;;17.80;99.90;;;;;;5101370;28;20204;-71
2022/06/04 03:30:35;;;;;;;25.60;14.05;;;17.70;99.90;;;;;;5121002;27;20216;-71
2022/06/04 03:33:01;;;;;;;8.63;4.85;;;17.70;99.90;;;;;;5105294;27;20707;-71
2022/06/04 03:35:27;;;;;;;7.45;5.13;;;18.10;99.90;;;;;;5105127;28;20287;-70
2022/06/04 03:37:53;;;;;;;10.98;6.38;;;18.30;99.90;;;;;;5102875;28;20331;-71
2022/06/04 03:40:19;;;;;;;6.15;3.47;;;18.40;99.90;;;;;;5101812;28;20542;-71
2022/06/04 03:42:45;;;;;;;7.50;2.88;;;18.30;99.90;;;;;;5123110;28;20305;-71
2022/06/04 03:45:13;;;;;;;7.00;4.20;;;18.20;99.90;;;;;;5125437;28;20245;-71
2022/06/04 03:47:40;;;;;;;4.45;2.80;;;18.10;99.90;;;;;;5120390;28;20219;-71
2022/06/04 03:50:17;;;;;;;4.40;3.22;;;18.00;99.90;;;;;;5119420;28;20699;-71
2022/06/04 03:52:43;;;;;;;2.92;2.60;;;18.00;99.90;;;;;;5104283;28;20188;-71
2022/06/04 03:55:10;;;;;;;5.47;2.97;;;18.10;99.90;;;;;;5123674;28;20264;-71
2022/06/04 03:57:50;;;;;;;5.78;2.85;;;18.00;99.90;;;;;;5102259;28;20219;-71
2022/06/04 04:00:22;;;;;;;7.82;2.88;;;18.20;99.90;;;;;;5119099;28;20197;-71
2022/06/04 04:02:54;;;;;;;4.88;2.65;;;18.10;99.90;;;;;;5093075;28;20665;-71
2022/06/04 04:05:25;;;;;;;2.42;2.22;;;18.10;99.90;;;;;;5101418;28;20213;-71
2022/06/04 04:07:54;;;;;;;4.80;2.67;;;18.10;99.90;;;;;;5093154;28;20180;-71
2022/06/04 04:10:19;;;;;;;4.78;2.75;;;18.10;99.90;;;;;;5101327;28;20170;-71
2022/06/04 04:12:46;;;;;;;2.88;2.42;;;18.10;99.90;;;;;;5122713;28;20219;-70
2022/06/04 04:15:13;;;;;;;3.13;2.70;;;18.40;99.90;;;;;;5120017;28;20328;-70
2022/06/04 04:17:40;;;;;;;3.88;2.40;;;18.40;99.90;;;;;;5101586;28;20303;-69
2022/06/04 04:20:12;;;;;;;6.53;2.90;;;18.80;99.90;;;;;;5100806;28;20201;-70
2022/06/04 04:22:38;;;;;;;6.18;2.50;;;19.10;99.90;;;;;;5103706;28;20189;-70
2022/06/04 04:25:05;;;;;;;4.80;2.90;;;19.40;99.90;;;;;;5121850;28;20295;-70
2022/06/04 04:27:31;;;;;;;5.25;3.17;;;19.50;99.90;;;;;;5121185;28;20693;-70
2022/06/04 04:29:56;;;;;;;3.25;2.30;;;19.30;99.90;;;;;;5118689;28;20212;-70
2022/06/04 04:32:22;;;;;;;6.70;2.72;;;19.20;99.90;;;;;;5113447;28;20209;-70
2022/06/04 04:34:47;;;;;;;5.22;2.83;;;19.00;99.90;;;;;;5110942;28;20166;-70
2022/06/04 04:37:13;;;;;;;3.47;2.50;;;19.00;99.90;;;;;;5093279;28;20166;-70
2022/06/04 04:39:38;;;;;;;6.30;2.60;;;18.70;99.90;;;;;;5109735;28;20194;-70
2022/06/04 04:42:05;;;;;;;4.80;2.67;;;18.50;99.90;;;;;;5093987;28;20201;-70
2022/06/04 04:44:30;;;;;;;3.85;2.60;;;18.60;99.90;;;;;;5114233;28;20213;-70
2022/06/04 04:46:56;;;;;;;5.18;2.78;;;18.40;99.90;;;;;;5096181;28;20174;-70
2022/06/04 04:49:22;;;;;;;5.43;2.55;;;18.40;99.90;;;;;;5114169;28;20173;-69
2022/06/04 04:51:48;;;;;;;4.45;2.65;;;18.50;99.90;;;;;;5099959;27;20204;-71
2022/06/04 04:54:14;;;;;;;4.25;2.40;;;18.40;99.90;;;;;;5134398;27;20217;-70
2022/06/04 04:56:40;;;;;;;3.97;2.80;;;18.40;99.90;;;;;;5134658;27;20277;-71
2022/06/04 04:59:06;;;;;;;4.05;2.25;;;18.40;99.90;;;;;;5134026;27;20312;-70
2022/06/04 05:01:33;;;;;;;5.47;2.53;;;18.50;99.90;;;;;;5130096;27;20182;-70
2022/06/04 05:03:59;;;;;;;2.72;1.98;;;18.80;99.90;;;;;;5095937;28;20218;-70
2022/06/04 05:06:25;;;;;;;4.30;2.17;;;19.20;99.90;;;;;;5113719;28;20208;-70
2022/06/04 05:08:54;;;;;;;6.15;2.60;;;19.90;99.90;;;;;;5095262;28;20228;-71
2022/06/04 05:11:27;;;;;;;3.45;2.25;;;20.80;99.90;;;;;;5095771;28;20205;-71
2022/06/04 05:13:53;;;;;;;4.78;2.53;;;20.90;99.90;;;;;;5095701;28;20224;-71
2022/06/04 05:16:24;;;;;;;5.25;2.60;;;21.20;99.90;;;;;;5114562;28;20626;-71
2022/06/04 05:18:50;;;;;;;2.85;2.47;;;21.90;99.90;;;;;;5094734;28;20263;-71
2022/06/04 05:21:16;;;;;;;2.90;2.17;;;22.30;99.90;;;;;;5113763;28;20661;-71
2022/06/04 05:23:41;;;;;;;2.45;2.25;;;21.90;99.90;;;;;;5113595;27;20210;-71
2022/06/04 05:26:07;;;;;;;4.78;2.70;;;22.20;99.90;;;;;;5113558;28;20285;-70
2022/06/04 05:28:33;;;;;;;3.63;2.20;;;21.80;99.90;;;;;;5113422;28;20186;-69
2022/06/04 05:30:58;;;;;;;3.95;2.20;;;21.50;99.90;;;;;;5095649;28;20205;-71
2022/06/04 05:33:24;;;;;;;3.65;2.40;;;21.50;99.90;;;;;;5113508;27;20206;-70
2022/06/04 05:35:49;;;;;;;2.55;2.13;;;21.70;99.90;;;;;;5113297;28;20218;-71
2022/06/04 05:38:15;;;;;;;6.63;2.47;;;21.20;99.90;;;;;;5094435;28;20213;-71
2022/06/04 05:40:41;;;;;;;3.78;2.47;;;21.20;99.90;;;;;;5114068;28;20573;-71
2022/06/04 05:43:06;;;;;;;3.83;2.40;;;21.30;99.90;;;;;;5113470;28;20270;-71
2022/06/04 05:45:32;;;;;;;3.63;2.47;;;21.00;99.90;;;;;;5113203;27;20210;-71
2022/06/04 05:47:57;;;;;;;4.25;2.45;;;21.10;99.90;;;;;;5112846;28;20238;-70
2022/06/04 05:50:23;;;;;;;3.10;2.40;;;21.30;99.90;;;;;;5094326;28;20280;-71
2022/06/04 05:52:49;;;;;;;5.07;2.40;;;21.20;99.90;;;;;;5113154;28;20213;-70
2022/06/04 05:55:14;;;;;;;3.70;2.50;;;20.90;99.90;;;;;;5113570;28;20284;-70
2022/06/04 05:57:40;;;;;;;3.05;2.47;;;20.90;99.90;;;;;;5094986;28;20254;-71
2022/06/04 06:00:08;;;;;;;3.70;2.38;;;21.30;99.90;;;;;;5094829;28;20200;-71
2022/06/04 06:02:35;;;;;;;3.58;2.03;;;21.50;99.90;;;;;;5099863;28;20225;-70
2022/06/04 06:05:02;;;;;;;3.13;2.58;;;21.70;99.90;;;;;;5094754;28;20339;-71
2022/06/04 06:07:27;;;;;;;3.10;2.53;;;21.70;99.90;;;;;;5112528;28;20487;-70
2022/06/04 06:09:53;;;;;;;3.95;2.47;;;22.40;99.90;;;;;;5133963;27;20221;-72
2022/06/04 06:12:18;;;;;;;5.57;2.40;;;22.60;99.90;;;;;;5117758;28;20609;-71
2022/06/04 06:14:44;;;;;;;2.97;2.10;;;22.80;99.90;;;;;;5113134;28;20310;-71
2022/06/04 06:17:09;;;;;;;3.97;2.92;;;23.70;99.90;;;;;;5094445;28;20205;-71
2022/06/04 06:19:35;;;;;;;3.53;2.50;;;24.70;99.90;;;;;;5112644;28;20684;-72
2022/06/04 06:22:00;;;;;;;4.40;3.13;;;26.00;99.90;;;;;;5094557;28;20209;-72
2022/06/04 06:24:26;;;;;;;3.78;2.35;;;26.50;99.90;;;;;;5094182;28;20205;-71
2022/06/04 06:26:57;;;;;;;5.45;3.10;;;26.90;99.90;;;;;;5094514;28;20198;-72
2022/06/04 06:29:26;;;;;;;3.35;2.92;;;26.40;99.90;;;;;;5112016;28;20209;-71
2022/06/04 06:31:53;;;;;;;5.30;3.75;;;25.70;99.90;;;;;;5112652;28;20197;-72
2022/06/04 06:34:20;;;;;;;4.03;3.47;;;24.40;99.90;;;;;;5094726;28;20194;-72
2022/06/04 06:36:46;;;;;;;2.75;2.53;;;23.70;99.90;;;;;;5094103;28;20201;-71
2022/06/04 06:39:11;;;;;;;2.90;2.58;;;23.20;99.90;;;;;;5111588;28;20217;-72
2022/06/04 06:41:38;;;;;;;5.00;3.20;;;23.00;99.90;;;;;;5112162;28;20216;-71
2022/06/04 06:44:04;;;;;;;4.05;2.50;;;22.40;99.90;;;;;;5093877;28;20217;-71
2022/06/04 06:46:42;;;;;;;3.38;2.75;;;21.80;99.90;;;;;;5112662;28;20200;-72
2022/06/04 06:49:19;;;;;;;6.25;2.92;;;21.70;99.90;;;;;;5093248;28;20209;-71
2022/06/04 06:51:54;;;;;;;3.67;2.50;;;21.40;99.90;;;;;;5093879;28;20214;-71
2022/06/04 06:54:22;;;;;;;4.93;2.80;;;21.20;99.90;;;;;;5093745;28;20216;-72
2022/06/04 06:56:49;;;;;;;5.28;2.65;;;21.00;99.90;;;;;;5094073;28;20202;-71
2022/06/04 06:59:16;;;;;;;5.45;2.30;;;20.70;99.90;;;;;;5093020;28;20213;-71
2022/06/04 07:01:42;;;;;;;3.78;2.58;;;20.70;99.90;;;;;;5112627;28;20589;-71
2022/06/04 07:04:08;;;;;;;3.22;2.13;;;20.90;99.90;;;;;;5111308;28;20197;-72
2022/06/04 07:06:40;;;;;;;4.68;2.30;;;20.90;99.90;;;;;;5093231;28;20301;-71
2022/06/04 07:09:21;;;;;;;3.17;2.28;;;21.10;99.90;;;;;;5092778;28;20205;-72
2022/06/04 07:11:47;;;;;;;3.53;2.28;;;21.00;99.90;;;;;;5093436;28;20197;-71
2022/06/04 07:14:14;;;;;;;3.00;2.08;;;21.00;99.90;;;;;;5111706;28;20212;-72
2022/06/04 07:16:40;;;;;;;2.85;2.22;;;21.30;99.90;;;;;;5093904;28;20218;-71
2022/06/04 07:19:07;;;;;;;4.47;2.15;;;21.40;99.90;;;;;;5092686;28;20259;-71
2022/06/04 07:21:33;;;;;;;4.43;2.40;;;21.50;99.90;;;;;;5093540;28;20296;-71
2022/06/04 07:23:59;;;;;;;2.80;2.22;;;21.20;99.90;;;;;;5111161;28;20201;-72
2022/06/04 07:26:26;;;;;;;3.10;1.98;;;21.40;99.90;;;;;;5093239;28;20208;-72
2022/06/04 07:28:52;;;;;;;3.17;2.20;;;21.60;99.90;;;;;;5110788;28;20169;-72
2022/06/04 07:31:18;;;;;;;3.33;2.13;;;21.70;99.90;;;;;;5094000;28;20251;-72
2022/06/04 07:33:48;;;;;;;2.80;2.22;;;21.70;99.90;;;;;;5093008;28;20205;-71
2022/06/04 07:36:17;;;;;;;3.47;2.38;;;21.70;99.90;;;;;;5093197;28;20198;-71
2022/06/04 07:38:43;;;;;;;4.43;2.92;;;21.80;99.90;;;;;;5091948;28;20205;-72
2022/06/04 07:41:20;;;;;;;8.30;4.13;;;21.60;99.90;;;;;;5111307;28;20205;-72
2022/06/04 07:43:46;;;;;;;6.28;3.40;;;21.50;99.90;;;;;;5092824;28;20212;-71
2022/06/04 07:46:12;;;;;;;9.70;5.20;;;21.50;99.90;;;;;;5093541;28;20173;-71
2022/06/04 07:48:37;;;;;;;11.75;6.70;;;21.40;99.90;;;;;;5092049;28;20205;-71
2022/06/04 07:51:04;;;;;;;3.28;2.58;;;21.40;99.90;;;;;;5098952;28;20693;-71
2022/06/04 07:53:30;;;;;;;6.97;2.85;;;21.40;99.90;;;;;;5144912;22;20200;-73
2022/06/04 07:55:56;;;;;;;3.85;2.20;;;21.20;99.90;;;;;;5092738;28;20170;-73
2022/06/04 07:58:21;;;;;;;6.18;3.17;;;21.20;99.90;;;;;;5092444;28;20562;-72
2022/06/04 08:00:54;;;;;;;7.93;2.20;;;21.10;99.90;;;;;;5092601;28;20197;-73
2022/06/04 08:03:20;;;;;;;2.15;1.90;;;21.00;99.90;;;;;;5111253;28;20741;-73
2022/06/04 08:05:45;;;;;;;2.33;2.00;;;21.00;99.90;;;;;;5092508;28;20201;-72
2022/06/04 08:08:11;;;;;;;2.75;2.30;;;20.90;99.90;;;;;;5091909;28;20610;-73
2022/06/04 08:10:36;;;;;;;2.83;2.00;;;20.80;99.90;;;;;;5093128;28;20222;-72
2022/06/04 08:13:04;;;;;;;3.53;2.28;;;20.70;99.90;;;;;;5111372;28;20242;-72
2022/06/04 08:15:30;;;;;;;3.75;2.15;;;20.80;99.90;;;;;;5092954;28;20206;-73
2022/06/04 08:17:56;;;;;;;2.85;1.80;;;20.90;99.90;;;;;;5088829;28;20205;-72
2022/06/04 08:20:21;;;;;;;4.00;1.80;;;20.80;99.90;;;;;;5106894;28;20248;-72
2022/06/04 08:22:47;;;;;;;4.32;2.45;;;21.00;99.90;;;;;;5093245;28;20640;-73
2022/06/04 08:25:13;;;;;;;7.78;2.72;;;21.00;99.90;;;;;;5114794;28;20561;-72
2022/06/04 08:27:39;;;;;;;4.68;2.50;;;21.00;99.90;;;;;;5114038;28;20208;-72
2022/06/04 08:30:05;;;;;;;2.60;2.13;;;21.00;99.90;;;;;;5095478;28;20197;-71
2022/06/04 08:32:32;;;;;;;1.88;1.70;;;21.00;99.90;;;;;;5108402;28;20202;-72
2022/06/04 08:34:58;;;;;;;4.20;1.98;;;21.00;99.90;;;;;;5091267;28;20614;-72
2022/06/04 08:37:23;;;;;;;2.92;2.03;;;21.00;99.90;;;;;;5114906;28;20182;-71
2022/06/04 08:39:49;;;;;;;1.73;1.58;;;21.10;99.90;;;;;;5095192;28;20201;-71
2022/06/04 08:42:39;;;;;;;2.85;1.75;;;21.20;99.90;;;;;;5095687;28;20205;-71
2022/06/04 08:45:08;;;;;;;3.47;2.72;;;21.40;99.90;;;;;;5086470;28;20197;-71
2022/06/04 08:47:39;;;;;;;2.33;1.88;;;21.40;99.90;;;;;;5095129;28;20209;-71
2022/06/04 08:50:20;;;;;;;5.03;3.40;;;21.40;99.90;;;;;;5086556;28;20201;-71
2022/06/04 08:52:58;;;;;;;2.65;1.85;;;21.60;99.90;;;;;;5091729;28;20181;-73
2022/06/04 08:58:59;;;;;;;4.63;2.03;;;21.80;99.90;;;;;;5113051;28;20254;-73
2022/06/04 09:01:54;;;;;;;3.33;1.95;;;22.10;99.90;;;;;;5108025;28;20655;-73
2022/06/04 09:04:59;;;;;;;2.80;2.20;;;22.30;99.90;;;;;;5113911;28;20206;-75
2022/06/04 09:07:40;;;;;;;3.75;1.98;;;22.30;99.90;;;;;;5095391;28;20550;-72
2022/06/04 09:10:21;;;;;;;5.75;2.15;;;22.30;99.90;;;;;;5094899;28;20193;-73
2022/06/04 09:13:02;;;;;;;2.10;1.90;;;22.20;99.90;;;;;;5095261;28;20197;-73
2022/06/04 09:15:37;;;;;;;4.30;2.92;;;22.30;99.90;;;;;;5113365;28;20212;-73
2022/06/04 09:18:18;;;;;;;5.47;3.50;;;22.40;99.90;;;;;;5094607;28;20579;-73
2022/06/04 09:20:51;;;;;;;2.75;2.20;;;22.10;99.90;;;;;;5112917;28;20744;-73
2022/06/04 09:23:35;;;;;;;3.65;2.10;;;22.10;99.90;;;;;;5113517;28;20202;-73
2022/06/04 09:26:13;;;;;;;2.28;1.75;;;21.90;99.90;;;;;;5092259;28;20169;-73
2022/06/04 09:29:21;;;;;;;3.97;2.72;;;21.90;99.90;;;;;;5093937;28;20205;-73
2022/06/04 09:31:49;;;;;;;5.57;2.95;;;21.80;99.90;;;;;;5049997;28;20213;-73
2022/06/04 09:34:19;;;;;;;2.85;2.20;;;21.90;99.90;;;;;;5095166;28;20234;-73
2022/06/04 09:36:46;;;;;;;3.08;2.00;;;22.00;99.90;;;;;;5094728;28;20672;-73
2022/06/04 09:39:17;;;;;;;2.97;2.08;;;22.10;99.90;;;;;;5111859;28;20212;-73
2022/06/04 09:41:56;;;;;;;6.07;2.25;;;22.30;99.90;;;;;;5112301;28;20206;-73
2022/06/04 09:44:24;;;;;;;4.25;2.13;;;22.50;99.90;;;;;;5094114;28;20698;-72
2022/06/04 09:46:55;;;;;;;3.95;2.50;;;22.70;99.90;;;;;;5112747;28;20230;-73
2022/06/04 09:49:32;;;;;;;8.50;5.05;;;22.90;99.90;;;;;;5112644;28;20162;-72
2022/06/04 09:51:59;;;;;;;16.80;9.00;;;23.20;99.90;;;;;;5112731;28;20691;-73
2022/06/04 09:54:33;;;;;;;9.30;5.50;;;23.70;99.90;;;;;;5094185;28;20438;-73
2022/06/04 09:57:05;;;;;;;3.03;1.90;;;24.00;99.90;;;;;;5112800;28;20256;-73
2022/06/04 09:59:34;;;;;;;11.25;2.70;;;24.20;99.90;;;;;;5112112;28;20302;-73
2022/06/04 10:02:09;;;;;;;9.05;4.43;;;24.20;99.90;;;;;;5088497;28;20162;-73
2022/06/04 10:04:40;;;;;;;7.85;4.85;;;24.30;99.90;;;;;;5094980;28;20200;-73
2022/06/04 10:07:12;;;;;;;5.35;2.80;;;23.90;99.90;;;;;;5094328;28;20269;-73
2022/06/04 10:09:58;;;;;;;7.50;3.83;;;24.00;99.90;;;;;;5111541;28;20250;-71
2022/06/04 10:15:33;;;;;;;6.47;3.40;;;24.00;99.90;;;;;;5112409;28;20561;-72
2022/06/04 10:18:13;;;;;;;7.90;3.28;;;24.00;99.90;;;;;;5093611;28;20575;-72
2022/06/04 10:20:39;;;;;;;6.50;4.13;;;24.10;99.90;;;;;;5111966;28;20275;-76
2022/06/04 10:23:12;;;;;;;4.97;3.35;;;24.10;99.90;;;;;;5113540;28;20208;-77
2022/06/04 10:26:03;;;;;;;3.95;2.28;;;24.10;99.90;;;;;;5092361;28;20174;-78
2022/06/04 10:28:58;;;;;;;6.65;3.75;;;23.80;99.90;;;;;;5111960;28;20217;-76
2022/06/04 10:31:33;;;;;;;5.25;2.78;;;24.10;99.90;;;;;;5086413;28;20210;-69
2022/06/04 10:34:19;;;;;;;8.30;4.35;;;24.30;99.90;;;;;;5093603;28;20209;-70
2022/06/04 10:37:18;;;;;;;5.95;2.55;;;24.70;99.90;;;;;;5093486;28;20220;-69
2022/06/04 10:40:09;;;;;;;4.25;2.70;;;24.90;99.90;;;;;;5092965;28;20189;-70
2022/06/04 10:42:53;;;;;;;6.28;4.30;;;25.00;99.90;;;;;;5093530;28;20288;-69
2022/06/04 10:45:40;;;;;;;2.65;2.13;;;25.20;99.90;;;;;;5111713;28;20235;-70
2022/06/04 10:48:24;;;;;;;5.28;2.85;;;25.10;99.90;;;;;;5092867;28;20205;-69
2022/06/04 10:54:04;;;;;;;4.28;3.85;;;24.90;99.90;;;;;;5111508;28;20236;-70
2022/06/04 10:57:04;;;;;;;3.28;2.88;;;24.90;99.90;;;;;;5092950;28;20210;-69
2022/06/04 10:59:45;;;;;;;3.97;2.50;;;25.10;99.90;;;;;;5110915;28;20205;-70
2022/06/04 11:02:29;;;;;;;1.88;1.70;;;25.50;99.90;;;;;;5105474;28;20712;-71
2022/06/04 11:05:02;;;;;;;2.70;1.60;;;26.00;99.90;;;;;;5078792;28;20709;-72
2022/06/04 11:07:31;;;;;;;4.63;1.85;;;26.10;99.90;;;;;;5111297;28;20634;-73
2022/06/04 11:09:58;;;;;;;2.88;2.15;;;26.20;99.90;;;;;;5090426;28;20282;-73
2022/06/04 11:12:34;;;;;;;3.22;1.52;;;26.40;99.90;;;;;;5111042;28;20690;-70
2022/06/04 11:15:23;;;;;;;3.15;2.85;;;26.20;99.90;;;;;;5111467;28;20220;-68
2022/06/04 11:18:12;;;;;;;3.70;2.47;;;25.60;99.90;;;;;;5109940;28;20228;-69
2022/06/04 11:20:45;;;;;;;3.85;2.72;;;25.30;99.90;;;;;;5092770;28;20739;-70
2022/06/04 11:23:26;;;;;;;4.00;2.30;;;25.50;99.90;;;;;;5093029;28;20273;-70
2022/06/04 11:25:57;;;;;;;5.40;1.92;;;25.80;99.90;;;;;;5093222;28;20278;-69
2022/06/04 11:28:26;;;;;;;2.63;1.88;;;25.70;99.90;;;;;;5110965;28;20165;-69
2022/06/04 11:31:18;;;;;;;2.60;1.92;;;25.70;99.90;;;;;;5111211;28;20198;-69
2022/06/04 11:33:47;;;;;;;4.55;2.55;;;25.70;99.90;;;;;;5092401;28;20214;-70
2022/06/04 11:36:33;;;;;;;3.13;2.40;;;25.90;99.90;;;;;;5092707;28;20250;-70
2022/06/04 11:39:02;;;;;;;3.30;1.65;;;26.00;99.90;;;;;;5091925;28;20209;-69
2022/06/04 11:41:53;;;;;;;5.28;2.45;;;26.00;99.90;;;;;;5092851;28;20292;-69
2022/06/04 11:44:30;;;;;;;2.42;2.08;;;25.90;99.90;;;;;;5092493;28;20213;-70
2022/06/04 11:47:32;;;;;;;2.78;2.15;;;25.80;99.90;;;;;;5092709;28;20178;-70
2022/06/04 11:50:03;;;;;;;2.60;2.03;;;26.20;99.90;;;;;;5110332;28;20172;-72
2022/06/04 11:52:37;;;;;;;2.72;1.92;;;26.40;99.90;;;;;;5097210;28;20591;-69
2022/06/04 11:55:02;;;;;;;3.35;2.53;;;26.40;99.90;;;;;;5096827;28;20213;-70
2022/06/04 11:57:48;;;;;;;3.08;2.53;;;26.70;99.90;;;;;;5114510;28;20250;-71
2022/06/04 12:00:29;;;;;;;4.30;2.85;;;26.70;99.90;;;;;;5096509;28;20189;-70
2022/06/04 12:03:13;;;;;;;3.85;2.20;;;26.80;99.90;;;;;;5090702;28;20204;-70
2022/06/04 12:06:17;;;;;;;2.85;2.10;;;26.80;99.90;;;;;;5114837;28;20235;-71
2022/06/04 12:08:49;;;;;;;2.83;2.63;;;26.50;99.90;;;;;;5114146;28;20216;-70
2022/06/04 12:11:41;;;;;;;3.45;2.30;;;26.80;99.90;;;;;;5115054;28;20197;-70
2022/06/04 12:14:32;;;;;;;3.08;2.15;;;26.90;99.90;;;;;;5114595;28;20216;-70
2022/06/04 12:17:19;;;;;;;2.42;2.20;;;27.30;99.90;;;;;;5114635;28;20178;-70
2022/06/04 12:25:44;;;;;;;3.03;2.00;;;26.20;99.90;;;;;;5115282;28;20189;-70
2022/06/04 12:28:26;;;;;;;2.83;2.17;;;25.90;99.90;;;;;;5095215;28;20208;-70
2022/06/04 12:30:52;;;;;;;4.78;2.60;;;26.00;99.90;;;;;;5095950;28;20225;-70
2022/06/04 12:33:34;;;;;;;2.22;2.03;;;26.20;99.90;;;;;;5089910;28;20197;-70
2022/06/04 12:36:09;;;;;;;4.85;3.55;;;26.10;99.90;;;;;;5114323;28;20209;-70
2022/06/04 12:38:38;;;;;;;3.90;2.03;;;26.20;99.90;;;;;;5094765;28;20254;-70
2022/06/04 12:41:20;;;;;;;7.25;2.00;;;26.20;99.90;;;;;;5113884;28;20201;-70
2022/06/04 12:43:55;;;;;;;3.63;2.60;;;26.10;99.90;;;;;;5114029;28;20329;-70
2022/06/04 12:46:25;;;;;;;2.13;1.92;;;26.20;99.90;;;;;;5114552;28;20173;-70
2022/06/04 12:49:16;;;;;;;4.93;2.17;;;26.30;99.90;;;;;;5094586;28;20609;-70
2022/06/04 12:51:57;;;;;;;2.20;2.00;;;25.80;99.90;;;;;;5095584;28;20221;-69
2022/06/04 12:54:39;;;;;;;4.75;2.47;;;25.20;99.90;;;;;;5113765;28;20213;-69
2022/06/04 12:57:15;;;;;;;2.28;2.08;;;25.30;99.90;;;;;;5113712;28;20285;-70
2022/06/04 12:59:45;;;;;;;3.42;2.17;;;25.30;99.90;;;;;;5095045;28;20209;-70
2022/06/04 13:02:28;;;;;;;2.10;1.90;;;25.30;99.90;;;;;;5106137;28;20217;-70
2022/06/04 13:05:19;;;;;;;2.88;2.38;;;25.50;99.90;;;;;;5095353;28;20189;-71
2022/06/04 13:08:03;;;;;;;2.72;2.00;;;25.50;99.90;;;;;;5094474;28;20166;-71
2022/06/04 13:10:50;;;;;;;3.10;2.15;;;25.50;99.90;;;;;;5114310;28;20193;-70
2022/06/04 13:13:42;;;;;;;3.10;2.03;;;25.60;99.90;;;;;;5114128;28;20197;-70
2022/06/04 13:16:24;;;;;;;2.67;1.98;;;25.90;99.90;;;;;;5113806;28;20682;-71
2022/06/04 13:19:22;;;;;;;1.95;1.75;;;25.70;99.90;;;;;;5094086;28;20209;-71
2022/06/04 13:21:49;;;;;;;2.30;2.13;;;25.60;99.90;;;;;;5069668;28;20204;-71
2022/06/04 13:24:21;;;;;;;3.00;2.72;;;25.30;99.90;;;;;;5113057;28;20689;-71
2022/06/04 13:26:58;;;;;;;2.42;1.83;;;25.50;99.90;;;;;;5094845;28;20193;-71
2022/06/04 13:29:28;;;;;;;2.55;2.30;;;25.90;99.90;;;;;;5112336;28;20690;-71
2022/06/04 13:32:01;;;;;;;3.45;2.58;;;26.10;99.90;;;;;;5088827;28;20170;-70
2022/06/04 13:34:30;;;;;;;4.38;2.28;;;26.20;99.90;;;;;;5113527;28;20189;-71